Time;durP1;ratioP1;P1;durP2;ratioP2;P2;SDS_P1;SDS_P2;PMS_P1;PMS_P2;Temp;Humidity;BMP_temperature;BMP_pressure;BME280_temperature;BME280_humidity;BME280_pressure;Samples;Min_cycle;Max_cycle;Signal;HPM_P1;HPM_P2
2022/12/31 00:01:25;;;;;;;0.50;0.40;;;19.00;62.10;;;;;;4914226;28;20187;-69
2022/12/31 00:03:51;;;;;;;0.85;0.60;;;19.00;62.10;;;;;;4926679;28;20184;-69
2022/12/31 00:06:33;;;;;;;0.95;0.70;;;19.10;62.20;;;;;;4930415;28;20192;-69
2022/12/31 00:09:03;;;;;;;0.75;0.50;;;19.00;62.10;;;;;;4924202;28;20229;-69
2022/12/31 00:11:30;;;;;;;1.38;0.60;;;19.00;62.10;;;;;;4914733;28;20191;-69
2022/12/31 00:13:57;;;;;;;1.20;0.60;;;19.00;62.10;;;;;;4930199;28;20191;-69
2022/12/31 00:16:27;;;;;;;0.95;0.65;;;19.00;62.10;;;;;;4914229;28;20195;-69
2022/12/31 00:18:58;;;;;;;1.02;0.50;;;19.00;62.10;;;;;;4930217;29;20219;-69
2022/12/31 00:21:25;;;;;;;1.15;0.75;;;19.00;62.20;;;;;;4929871;28;20200;-69
2022/12/31 00:23:51;;;;;;;0.68;0.60;;;19.00;62.20;;;;;;4930286;28;20183;-69
2022/12/31 00:26:23;;;;;;;1.40;0.70;;;19.00;62.20;;;;;;4930083;29;20191;-67
2022/12/31 00:28:50;;;;;;;1.45;0.57;;;19.00;62.20;;;;;;4914177;28;20207;-69
2022/12/31 00:31:20;;;;;;;1.15;0.50;;;19.00;62.20;;;;;;4911148;29;20222;-69
2022/12/31 00:33:46;;;;;;;1.27;0.70;;;19.00;62.20;;;;;;4938012;29;20198;-69
2022/12/31 00:36:16;;;;;;;1.13;0.50;;;19.00;62.20;;;;;;4907484;28;20180;-69
2022/12/31 00:38:45;;;;;;;1.15;0.57;;;19.00;62.20;;;;;;4929192;28;20589;-69
2022/12/31 00:41:13;;;;;;;1.00;0.50;;;19.00;62.20;;;;;;4931100;28;20278;-69
2022/12/31 00:43:39;;;;;;;1.05;0.50;;;19.00;62.20;;;;;;4914244;28;20215;-69
2022/12/31 00:46:06;;;;;;;0.75;0.57;;;19.00;62.30;;;;;;4929739;28;20215;-71
2022/12/31 00:48:33;;;;;;;0.63;0.50;;;19.00;62.30;;;;;;4929032;28;20219;-69
2022/12/31 00:51:01;;;;;;;0.82;0.60;;;19.00;62.30;;;;;;4932941;29;20290;-69
2022/12/31 00:53:27;;;;;;;1.40;0.57;;;19.00;62.30;;;;;;4917146;28;20195;-69
2022/12/31 00:56:06;;;;;;;0.50;0.47;;;19.00;62.30;;;;;;4933008;29;20210;-69
2022/12/31 00:58:33;;;;;;;0.57;0.50;;;19.00;62.30;;;;;;4916903;28;20308;-69
2022/12/31 01:01:14;;;;;;;0.70;0.50;;;19.00;62.30;;;;;;4917201;28;20278;-69
2022/12/31 01:03:40;;;;;;;1.55;0.57;;;19.00;62.30;;;;;;4930437;28;20238;-69
2022/12/31 01:06:06;;;;;;;0.77;0.40;;;19.00;62.40;;;;;;4921765;28;20192;-69
2022/12/31 01:08:32;;;;;;;0.63;0.40;;;19.00;62.40;;;;;;4930548;29;20203;-69
2022/12/31 01:11:18;;;;;;;2.10;0.40;;;19.00;62.40;;;;;;4932760;29;20640;-69
2022/12/31 01:13:49;;;;;;;0.63;0.47;;;19.00;62.40;;;;;;4932571;29;20666;-70
2022/12/31 01:16:17;;;;;;;1.10;0.60;;;19.00;62.40;;;;;;4932384;29;20581;-69
2022/12/31 01:18:43;;;;;;;1.45;0.60;;;19.00;62.40;;;;;;4958702;28;20245;-69
2022/12/31 01:21:11;;;;;;;0.65;0.60;;;19.00;62.40;;;;;;4916986;28;20194;-70
2022/12/31 01:23:38;;;;;;;0.90;0.40;;;19.00;62.40;;;;;;4932220;28;20215;-69
2022/12/31 01:26:07;;;;;;;0.80;0.80;;;19.00;62.50;;;;;;4932417;28;20197;-69
2022/12/31 01:28:34;;;;;;;0.45;0.40;;;19.00;62.50;;;;;;4932155;28;20215;-69
2022/12/31 01:31:06;;;;;;;0.63;0.52;;;19.00;62.40;;;;;;4924867;29;20239;-69
2022/12/31 01:33:33;;;;;;;0.93;0.60;;;19.00;62.50;;;;;;4932334;29;20281;-69
2022/12/31 01:36:06;;;;;;;0.85;0.60;;;19.00;62.50;;;;;;4932472;28;20195;-69
2022/12/31 01:38:33;;;;;;;0.50;0.50;;;19.00;62.40;;;;;;4931323;29;20234;-69
2022/12/31 01:41:00;;;;;;;0.90;0.60;;;19.00;62.50;;;;;;4905319;28;20184;-69
2022/12/31 01:43:49;;;;;;;0.50;0.40;;;19.00;62.50;;;;;;4915184;28;20222;-69
2022/12/31 01:46:40;;;;;;;0.30;0.30;;;19.00;62.60;;;;;;4949061;28;20685;-69
2022/12/31 01:49:18;;;;;;;0.50;0.50;;;19.00;62.60;;;;;;4926285;28;20314;-69
2022/12/31 01:51:59;;;;;;;0.40;0.40;;;19.00;62.50;;;;;;4916221;29;20195;-69
2022/12/31 01:54:29;;;;;;;1.10;0.50;;;19.00;62.60;;;;;;4932261;29;20253;-69
2022/12/31 01:56:56;;;;;;;0.80;0.50;;;19.00;62.60;;;;;;4932144;29;20191;-70
2022/12/31 01:59:25;;;;;;;0.50;0.50;;;19.00;62.60;;;;;;4932278;28;20203;-69
2022/12/31 02:01:51;;;;;;;0.45;0.30;;;19.00;62.60;;;;;;4924153;28;20235;-69
2022/12/31 02:04:21;;;;;;;0.57;0.50;;;19.00;62.60;;;;;;4935449;28;20195;-69
2022/12/31 02:06:55;;;;;;;1.15;0.65;;;19.00;62.60;;;;;;4962124;28;20211;-69
2022/12/31 02:09:20;;;;;;;0.75;0.50;;;19.00;62.60;;;;;;4931700;29;20207;-69
2022/12/31 02:11:46;;;;;;;0.63;0.52;;;19.00;62.60;;;;;;4931724;28;20192;-69
2022/12/31 02:14:30;;;;;;;0.80;0.47;;;19.00;62.70;;;;;;4933102;29;20195;-69
2022/12/31 02:17:21;;;;;;;0.40;0.40;;;19.00;63.40;;;;;;4924762;29;20200;-69
2022/12/31 02:20:32;;;;;;;0.88;0.50;;;19.00;62.70;;;;;;4915404;28;20219;-69
2022/12/31 02:23:39;;;;;;;0.30;0.30;;;19.00;62.90;;;;;;4940704;28;20341;-69
2022/12/31 02:26:36;;;;;;;1.00;0.40;;;19.00;62.70;;;;;;4925510;28;20198;-69
2022/12/31 02:29:22;;;;;;;0.40;0.40;;;19.00;62.60;;;;;;4915616;29;20208;-69
2022/12/31 02:32:06;;;;;;;2.20;0.47;;;19.00;62.70;;;;;;4931594;28;20282;-69
2022/12/31 02:34:46;;;;;;;1.20;0.70;;;19.00;62.70;;;;;;4915478;28;20238;-69
2022/12/31 02:37:17;;;;;;;0.40;0.40;;;19.00;62.70;;;;;;4915736;29;20206;-66
2022/12/31 02:39:44;;;;;;;0.63;0.50;;;19.00;62.80;;;;;;4931158;29;20230;-69
2022/12/31 02:42:11;;;;;;;0.55;0.40;;;19.00;62.80;;;;;;4931384;28;20226;-69
2022/12/31 02:44:40;;;;;;;1.17;0.60;;;19.00;62.80;;;;;;4931301;28;20184;-69
2022/12/31 02:47:50;;;;;;;0.50;0.50;;;19.00;62.70;;;;;;4931396;28;20210;-69
2022/12/31 02:50:54;;;;;;;1.30;0.40;;;19.00;62.80;;;;;;4926413;28;20192;-69
2022/12/31 02:54:01;;;;;;;0.47;0.40;;;19.00;62.70;;;;;;4931504;29;20191;-69
2022/12/31 02:56:41;;;;;;;0.65;0.40;;;19.00;62.80;;;;;;4915381;28;20199;-69
2022/12/31 03:02:13;;;;;;;0.40;0.40;;;19.00;62.80;;;;;;4940486;28;20357;-69
2022/12/31 03:04:49;;;;;;;0.75;0.52;;;19.00;62.80;;;;;;4931042;29;20330;-69
2022/12/31 03:07:25;;;;;;;0.90;0.55;;;19.00;62.80;;;;;;4931010;29;20219;-69
2022/12/31 03:09:51;;;;;;;0.60;0.32;;;19.00;62.80;;;;;;4919818;28;20191;-69
2022/12/31 03:15:18;;;;;;;0.47;0.43;;;19.00;62.80;;;;;;4931329;28;20218;-69
2022/12/31 03:18:06;;;;;;;0.63;0.52;;;19.00;62.80;;;;;;4931841;28;20242;-69
2022/12/31 03:23:48;;;;;;;0.57;0.50;;;19.00;62.80;;;;;;4930786;29;20298;-69
2022/12/31 03:26:15;;;;;;;0.60;0.40;;;19.00;62.80;;;;;;4941226;28;20195;-69
2022/12/31 03:28:46;;;;;;;0.50;0.30;;;19.00;62.90;;;;;;4930398;28;20239;-69
2022/12/31 03:31:12;;;;;;;0.47;0.30;;;19.00;62.90;;;;;;4914984;29;20191;-70
2022/12/31 03:33:40;;;;;;;1.58;0.40;;;19.00;62.90;;;;;;4930379;29;20183;-69
2022/12/31 03:36:13;;;;;;;0.40;0.40;;;19.00;62.90;;;;;;4930624;29;20198;-70
2022/12/31 03:38:40;;;;;;;0.38;0.35;;;19.00;62.90;;;;;;4914516;29;20288;-68
2022/12/31 03:41:09;;;;;;;0.90;0.30;;;19.00;62.90;;;;;;4914800;28;20195;-69
2022/12/31 03:43:34;;;;;;;0.38;0.38;;;19.00;63.70;;;;;;4914397;29;20215;-69
2022/12/31 03:46:00;;;;;;;0.45;0.45;;;19.00;62.90;;;;;;4911879;28;20188;-69
2022/12/31 03:48:26;;;;;;;0.30;0.30;;;19.00;63.00;;;;;;4960117;28;20199;-69
2022/12/31 03:50:52;;;;;;;0.73;0.70;;;19.00;62.90;;;;;;4917751;28;20240;-69
2022/12/31 03:53:18;;;;;;;0.70;0.40;;;19.00;62.90;;;;;;4914740;28;20195;-70
2022/12/31 03:55:43;;;;;;;0.52;0.40;;;19.00;63.00;;;;;;4931901;28;20187;-69
2022/12/31 03:58:10;;;;;;;0.40;0.40;;;19.00;62.90;;;;;;4930250;28;20565;-69
2022/12/31 04:00:35;;;;;;;0.63;0.40;;;19.00;63.00;;;;;;4914669;28;20206;-70
2022/12/31 04:03:01;;;;;;;0.45;0.45;;;19.00;63.00;;;;;;4949885;28;20246;-70
2022/12/31 04:05:27;;;;;;;0.75;0.50;;;19.00;63.00;;;;;;4914479;28;20191;-71
2022/12/31 04:07:54;;;;;;;0.90;0.30;;;19.00;63.00;;;;;;4930129;29;20251;-69
2022/12/31 04:10:20;;;;;;;0.45;0.38;;;19.00;63.00;;;;;;4914316;28;20188;-70
2022/12/31 04:12:46;;;;;;;0.60;0.55;;;19.00;63.00;;;;;;4930207;28;20191;-69
2022/12/31 04:15:19;;;;;;;0.30;0.30;;;19.00;63.00;;;;;;4930290;28;20207;-69
2022/12/31 04:20:13;;;;;;;0.65;0.60;;;19.00;63.10;;;;;;5040531;28;20218;-71
2022/12/31 04:22:40;;;;;;;0.40;0.40;;;19.00;63.10;;;;;;5036956;28;20250;-71
2022/12/31 04:25:10;;;;;;;0.50;0.45;;;19.00;63.10;;;;;;5063971;28;20187;-71
2022/12/31 04:27:38;;;;;;;0.50;0.50;;;19.00;63.20;;;;;;5055530;28;20244;-71
2022/12/31 04:30:06;;;;;;;0.63;0.60;;;18.90;63.00;;;;;;5034048;28;20294;-71
2022/12/31 04:32:31;;;;;;;0.50;0.40;;;19.00;63.20;;;;;;5017885;28;20183;-71
2022/12/31 04:34:57;;;;;;;0.60;0.40;;;19.00;63.10;;;;;;5026206;28;20195;-71
2022/12/31 04:37:23;;;;;;;0.40;0.40;;;18.90;63.10;;;;;;5028944;28;20200;-71
2022/12/31 04:39:48;;;;;;;1.75;0.40;;;19.00;63.10;;;;;;5022416;28;20208;-71
2022/12/31 04:42:14;;;;;;;0.85;0.40;;;19.00;63.20;;;;;;5006162;28;20208;-71
2022/12/31 04:44:40;;;;;;;1.27;0.40;;;19.00;63.20;;;;;;5022539;28;20195;-71
2022/12/31 04:47:05;;;;;;;0.30;0.30;;;19.00;63.20;;;;;;5043254;28;20187;-71
2022/12/31 04:49:31;;;;;;;0.52;0.50;;;18.90;63.10;;;;;;5021467;28;20203;-71
2022/12/31 04:51:57;;;;;;;0.45;0.40;;;19.00;63.20;;;;;;5025756;28;20194;-71
2022/12/31 04:54:23;;;;;;;0.63;0.40;;;19.00;63.20;;;;;;5027689;28;20241;-71
2022/12/31 04:56:48;;;;;;;2.33;0.45;;;19.00;63.20;;;;;;5024008;28;20238;-71
2022/12/31 04:59:14;;;;;;;0.38;0.38;;;19.00;63.20;;;;;;5026892;28;20215;-71
2022/12/31 05:01:40;;;;;;;0.75;0.50;;;19.00;63.30;;;;;;5033418;28;20194;-71
2022/12/31 05:04:06;;;;;;;0.35;0.35;;;19.00;63.20;;;;;;5013424;28;20211;-71
2022/12/31 05:06:31;;;;;;;0.30;0.30;;;19.00;63.20;;;;;;5021553;28;20190;-71
2022/12/31 05:08:58;;;;;;;1.05;0.35;;;19.00;63.30;;;;;;5017114;28;20226;-71
2022/12/31 05:11:23;;;;;;;0.50;0.45;;;19.00;63.30;;;;;;5033685;28;20179;-71
2022/12/31 05:13:49;;;;;;;1.08;0.50;;;19.00;63.30;;;;;;5008827;28;20199;-71
2022/12/31 05:16:15;;;;;;;0.40;0.30;;;19.00;63.30;;;;;;5028394;28;20212;-71
2022/12/31 05:18:41;;;;;;;0.80;0.40;;;19.00;63.30;;;;;;5021464;28;20251;-71
2022/12/31 05:21:07;;;;;;;0.40;0.40;;;19.00;63.40;;;;;;5006643;28;20195;-71
2022/12/31 05:23:33;;;;;;;0.40;0.40;;;18.90;63.30;;;;;;5029737;28;20203;-71
2022/12/31 05:25:59;;;;;;;0.47;0.40;;;19.00;63.40;;;;;;5033419;28;20213;-71
2022/12/31 05:28:25;;;;;;;0.40;0.40;;;19.00;63.40;;;;;;5033393;28;20256;-71
2022/12/31 05:30:51;;;;;;;0.68;0.45;;;19.00;63.40;;;;;;5024920;28;20217;-71
2022/12/31 05:33:17;;;;;;;0.50;0.50;;;19.00;63.40;;;;;;5020400;28;20192;-71
2022/12/31 05:35:43;;;;;;;0.40;0.40;;;19.00;63.40;;;;;;5022221;28;20199;-71
2022/12/31 05:38:09;;;;;;;0.30;0.30;;;18.90;63.30;;;;;;5015512;28;20218;-71
2022/12/31 05:40:35;;;;;;;0.50;0.50;;;19.00;63.50;;;;;;5025342;28;20188;-71
2022/12/31 05:43:01;;;;;;;0.55;0.40;;;19.00;63.50;;;;;;5029608;28;20211;-71
2022/12/31 05:45:26;;;;;;;0.50;0.50;;;18.90;63.40;;;;;;5011639;28;20236;-71
2022/12/31 05:47:52;;;;;;;0.40;0.40;;;19.00;63.50;;;;;;5006722;28;20191;-71
2022/12/31 05:50:18;;;;;;;0.40;0.40;;;18.90;63.40;;;;;;5005092;28;20203;-71
2022/12/31 05:52:45;;;;;;;0.40;0.40;;;19.00;63.50;;;;;;5005500;28;20279;-71
2022/12/31 05:55:12;;;;;;;0.43;0.40;;;19.00;63.50;;;;;;5041227;28;20188;-71
2022/12/31 05:57:39;;;;;;;0.50;0.50;;;18.90;63.40;;;;;;5032740;28;20282;-71
2022/12/31 06:00:09;;;;;;;0.85;0.50;;;18.90;63.40;;;;;;5016372;28;20230;-71
2022/12/31 06:02:39;;;;;;;0.40;0.40;;;18.90;63.50;;;;;;5040557;28;20207;-71
2022/12/31 06:05:05;;;;;;;0.30;0.30;;;18.90;63.50;;;;;;5024507;28;20241;-71
2022/12/31 06:07:31;;;;;;;0.30;0.30;;;18.90;63.40;;;;;;5033052;28;20191;-71
2022/12/31 06:09:57;;;;;;;0.50;0.50;;;18.90;63.50;;;;;;5015752;28;20302;-71
2022/12/31 06:12:23;;;;;;;0.45;0.45;;;18.90;63.50;;;;;;5019882;28;20188;-71
2022/12/31 06:14:48;;;;;;;0.40;0.40;;;18.90;63.50;;;;;;5012706;28;20199;-71
2022/12/31 06:17:14;;;;;;;0.35;0.30;;;19.00;63.60;;;;;;4996680;28;20191;-71
2022/12/31 06:19:40;;;;;;;0.38;0.32;;;18.90;63.50;;;;;;5016838;28;20215;-71
2022/12/31 06:22:05;;;;;;;0.40;0.40;;;18.90;63.50;;;;;;5012352;28;20212;-71
2022/12/31 06:24:31;;;;;;;0.30;0.30;;;18.90;63.50;;;;;;5011241;28;20195;-71
2022/12/31 06:26:57;;;;;;;0.32;0.32;;;18.90;63.50;;;;;;5030182;28;20183;-71
2022/12/31 06:29:22;;;;;;;0.40;0.40;;;19.00;63.70;;;;;;4995843;28;20204;-71
2022/12/31 06:31:48;;;;;;;0.30;0.30;;;18.90;63.60;;;;;;5021454;28;20218;-71
2022/12/31 06:34:14;;;;;;;0.30;0.30;;;18.90;63.50;;;;;;5032450;28;20182;-71
2022/12/31 06:36:40;;;;;;;0.40;0.40;;;18.90;63.50;;;;;;5007518;28;20183;-71
2022/12/31 06:39:06;;;;;;;0.70;0.45;;;19.00;63.60;;;;;;5023777;28;20207;-71
2022/12/31 06:41:31;;;;;;;0.50;0.50;;;18.90;63.60;;;;;;5036995;28;20184;-71
2022/12/31 06:43:57;;;;;;;0.65;0.47;;;18.90;63.60;;;;;;5007053;28;20254;-71
2022/12/31 06:46:24;;;;;;;0.50;0.50;;;18.90;63.50;;;;;;5026153;28;20718;-71
2022/12/31 06:48:50;;;;;;;0.60;0.60;;;18.90;63.50;;;;;;5003622;28;20210;-71
2022/12/31 06:51:19;;;;;;;0.40;0.40;;;18.90;63.60;;;;;;5016724;28;20183;-71
2022/12/31 06:53:48;;;;;;;0.45;0.40;;;18.90;63.60;;;;;;5015105;28;20216;-71
2022/12/31 06:56:16;;;;;;;0.63;0.60;;;18.90;63.60;;;;;;5020227;28;20263;-71
2022/12/31 06:58:42;;;;;;;1.55;0.50;;;18.90;63.60;;;;;;5011675;28;20243;-70
2022/12/31 07:01:39;;;;;;;0.32;0.32;;;18.90;63.60;;;;;;5028236;28;20234;-71
2022/12/31 07:04:47;;;;;;;0.40;0.40;;;19.00;63.70;;;;;;5024134;28;20218;-71
2022/12/31 07:07:33;;;;;;;0.40;0.40;;;18.90;63.60;;;;;;4995786;28;20207;-71
2022/12/31 07:10:20;;;;;;;0.30;0.30;;;18.90;63.60;;;;;;5022078;28;20218;-71
2022/12/31 07:13:22;;;;;;;0.47;0.38;;;18.90;63.60;;;;;;5039845;28;20191;-71
2022/12/31 07:16:20;;;;;;;0.50;0.50;;;18.90;63.70;;;;;;5031040;28;20337;-71
2022/12/31 07:18:52;;;;;;;0.75;0.45;;;18.90;63.70;;;;;;5020995;28;20680;-71
2022/12/31 07:21:33;;;;;;;0.63;0.30;;;18.90;63.60;;;;;;5039947;28;20245;-71
2022/12/31 07:24:00;;;;;;;0.38;0.38;;;18.90;63.60;;;;;;5031142;28;20242;-71
2022/12/31 07:26:55;;;;;;;0.28;0.28;;;18.90;63.60;;;;;;5032498;28;20258;-71
2022/12/31 07:29:56;;;;;;;0.30;0.30;;;18.90;63.70;;;;;;5008133;28;20214;-71
2022/12/31 07:33:01;;;;;;;0.50;0.50;;;18.90;63.70;;;;;;5006586;28;20195;-70
2022/12/31 07:35:40;;;;;;;0.40;0.40;;;18.90;63.70;;;;;;5026441;28;20214;-71
2022/12/31 07:38:24;;;;;;;1.45;0.40;;;18.90;63.60;;;;;;5022675;28;20210;-71
2022/12/31 07:41:40;;;;;;;0.85;0.55;;;18.90;63.70;;;;;;5046108;28;20219;-70
2022/12/31 07:44:14;;;;;;;1.33;0.47;;;18.90;63.60;;;;;;5003309;28;20196;-71
2022/12/31 07:47:03;;;;;;;0.35;0.35;;;18.90;63.70;;;;;;5043785;28;20209;-71
2022/12/31 07:49:32;;;;;;;0.40;0.40;;;18.90;63.60;;;;;;5017056;28;20579;-71
2022/12/31 07:51:58;;;;;;;0.55;0.43;;;18.90;63.70;;;;;;5014598;28;20195;-70
2022/12/31 07:54:24;;;;;;;0.35;0.35;;;18.90;63.60;;;;;;5028157;28;20191;-70
2022/12/31 07:56:50;;;;;;;0.60;0.40;;;18.90;63.70;;;;;;5028222;28;20197;-71
2022/12/31 07:59:43;;;;;;;0.60;0.60;;;18.90;63.70;;;;;;5047235;28;20235;-71
2022/12/31 08:02:51;;;;;;;0.50;0.45;;;18.90;63.70;;;;;;5037860;28;20223;-71
2022/12/31 08:06:03;;;;;;;0.57;0.40;;;18.90;63.70;;;;;;5030797;28;20264;-71
2022/12/31 08:09:15;;;;;;;0.30;0.30;;;18.90;63.70;;;;;;4982152;28;20266;-71
2022/12/31 08:11:54;;;;;;;0.40;0.40;;;18.90;63.70;;;;;;5016467;28;20679;-70
2022/12/31 08:14:20;;;;;;;0.40;0.40;;;18.90;63.60;;;;;;5038287;28;20188;-71
2022/12/31 08:16:47;;;;;;;2.47;0.50;;;18.90;63.70;;;;;;5030730;28;20222;-71
2022/12/31 08:19:24;;;;;;;0.40;0.40;;;18.90;63.70;;;;;;5043439;28;20578;-71
2022/12/31 08:22:24;;;;;;;0.40;0.40;;;18.90;63.70;;;;;;5027157;28;20201;-71
2022/12/31 08:25:27;;;;;;;1.13;0.50;;;18.90;63.70;;;;;;5037150;28;20662;-70
2022/12/31 08:28:37;;;;;;;1.75;0.40;;;18.90;63.70;;;;;;5023472;28;20195;-70
2022/12/31 08:31:11;;;;;;;0.60;0.40;;;18.90;63.70;;;;;;5002178;28;20250;-70
2022/12/31 08:33:54;;;;;;;1.58;0.60;;;19.00;63.80;;;;;;5002876;28;20229;-71
2022/12/31 08:36:44;;;;;;;0.85;0.68;;;18.90;63.70;;;;;;5014987;28;20236;-71
2022/12/31 08:39:22;;;;;;;0.60;0.60;;;19.00;63.70;;;;;;5023216;28;20701;-71
2022/12/31 08:41:53;;;;;;;0.73;0.50;;;18.90;63.70;;;;;;5030639;28;20250;-71
2022/12/31 08:44:49;;;;;;;0.43;0.43;;;18.90;63.70;;;;;;5047185;28;20198;-71
2022/12/31 08:47:44;;;;;;;0.73;0.40;;;19.00;63.70;;;;;;5030500;28;20190;-71
2022/12/31 08:50:17;;;;;;;0.40;0.40;;;19.00;63.80;;;;;;5029797;28;20226;-71
2022/12/31 08:52:44;;;;;;;0.50;0.43;;;19.00;63.80;;;;;;5006163;28;20199;-71
2022/12/31 08:55:18;;;;;;;0.80;0.50;;;19.00;63.80;;;;;;5030629;28;20192;-70
2022/12/31 08:58:20;;;;;;;1.60;0.50;;;19.00;63.80;;;;;;5034543;28;20195;-71
2022/12/31 09:00:50;;;;;;;0.52;0.52;;;19.00;63.80;;;;;;5017042;28;20191;-71
2022/12/31 09:03:57;;;;;;;1.60;0.63;;;19.00;63.80;;;;;;5018891;28;20220;-71
2022/12/31 09:06:57;;;;;;;0.63;0.63;;;19.00;63.80;;;;;;5023120;28;20563;-71
2022/12/31 09:09:41;;;;;;;0.88;0.50;;;18.90;63.70;;;;;;5049436;28;20298;-71
2022/12/31 09:12:40;;;;;;;0.60;0.60;;;19.00;63.80;;;;;;5025289;28;20195;-70
2022/12/31 09:15:21;;;;;;;0.50;0.50;;;19.00;63.80;;;;;;5031628;28;20287;-70
2022/12/31 09:17:51;;;;;;;0.50;0.40;;;19.00;63.80;;;;;;5026235;28;20199;-70
2022/12/31 09:20:26;;;;;;;0.40;0.40;;;19.00;63.90;;;;;;5053914;28;20191;-70
2022/12/31 09:22:54;;;;;;;0.70;0.70;;;19.00;63.80;;;;;;5026387;28;20246;-70
2022/12/31 09:25:22;;;;;;;0.40;0.40;;;19.00;64.60;;;;;;5033419;28;20191;-70
2022/12/31 09:28:09;;;;;;;0.40;0.40;;;19.00;63.80;;;;;;5017073;28;20191;-70
2022/12/31 09:30:52;;;;;;;0.50;0.50;;;19.00;63.80;;;;;;5027903;28;20184;-70
2022/12/31 09:33:39;;;;;;;1.13;0.50;;;19.00;63.80;;;;;;5024956;28;20245;-70
2022/12/31 09:36:14;;;;;;;0.40;0.40;;;19.00;63.80;;;;;;5011394;28;20223;-70
2022/12/31 09:39:07;;;;;;;0.60;0.60;;;19.00;63.80;;;;;;5032612;28;20289;-70
2022/12/31 09:42:16;;;;;;;0.60;0.60;;;19.00;63.80;;;;;;5038160;28;20192;-70
2022/12/31 09:44:44;;;;;;;0.70;0.70;;;19.00;63.80;;;;;;5038004;28;20196;-70
2022/12/31 09:47:50;;;;;;;0.55;0.55;;;19.00;63.80;;;;;;5033393;28;20253;-70
2022/12/31 09:50:47;;;;;;;0.40;0.40;;;19.00;63.90;;;;;;5024355;28;20233;-70
2022/12/31 09:53:15;;;;;;;1.08;0.45;;;19.00;63.90;;;;;;5013915;28;20211;-70
2022/12/31 09:56:02;;;;;;;0.73;0.70;;;19.00;63.80;;;;;;5042186;28;20196;-70
2022/12/31 09:59:09;;;;;;;1.85;0.50;;;19.00;63.80;;;;;;5034382;28;20587;-70
2022/12/31 10:01:49;;;;;;;0.50;0.50;;;19.00;63.80;;;;;;5034066;28;20195;-70
2022/12/31 10:04:50;;;;;;;0.80;0.50;;;19.00;63.80;;;;;;5041155;28;20191;-70
2022/12/31 10:07:56;;;;;;;0.38;0.30;;;19.00;63.80;;;;;;5024897;28;20278;-70
2022/12/31 10:10:33;;;;;;;1.30;0.47;;;19.00;63.80;;;;;;5037388;28;20701;-70
2022/12/31 10:13:26;;;;;;;0.60;0.60;;;19.00;63.90;;;;;;5013395;28;20198;-70
2022/12/31 10:16:04;;;;;;;0.40;0.40;;;19.00;63.80;;;;;;5041260;28;20206;-70
2022/12/31 10:18:59;;;;;;;0.30;0.30;;;19.00;63.80;;;;;;5044394;22;20194;-68
2022/12/31 10:22:17;;;;;;;0.40;0.38;;;19.00;63.80;;;;;;5036537;28;20248;-65
2022/12/31 10:25:13;;;;;;;0.40;0.40;;;19.00;63.80;;;;;;5035809;28;20195;-65
2022/12/31 10:28:05;;;;;;;0.50;0.50;;;19.00;63.90;;;;;;5049588;28;20182;-66
2022/12/31 10:30:39;;;;;;;0.40;0.40;;;19.00;63.90;;;;;;5043724;28;20234;-66
2022/12/31 10:33:31;;;;;;;0.50;0.50;;;19.00;63.90;;;;;;5048672;28;20193;-65
2022/12/31 10:36:17;;;;;;;0.30;0.30;;;19.00;63.90;;;;;;5043816;28;20680;-65
2022/12/31 10:39:01;;;;;;;0.50;0.50;;;19.00;63.90;;;;;;5034183;28;20693;-65
2022/12/31 10:42:19;;;;;;;0.52;0.43;;;19.00;63.90;;;;;;5027263;28;20185;-66
2022/12/31 10:45:32;;;;;;;2.90;0.60;;;19.00;63.90;;;;;;5021244;28;20619;-65
2022/12/31 10:48:23;;;;;;;0.70;0.50;;;19.00;64.00;;;;;;5047536;28;20278;-66
2022/12/31 10:51:08;;;;;;;0.50;0.47;;;19.00;64.00;;;;;;5057718;28;20281;-66
2022/12/31 10:54:13;;;;;;;0.50;0.50;;;19.00;64.00;;;;;;5036554;28;20186;-65
2022/12/31 10:57:24;;;;;;;0.70;0.52;;;19.00;64.00;;;;;;5066289;28;20194;-66
2022/12/31 11:00:18;;;;;;;1.20;0.70;;;19.00;64.00;;;;;;5028896;28;20218;-66
2022/12/31 11:03:22;;;;;;;0.95;0.60;;;19.00;64.00;;;;;;5049610;28;20266;-66
2022/12/31 11:06:33;;;;;;;0.77;0.60;;;19.00;64.00;;;;;;5049333;28;20263;-66
2022/12/31 11:09:31;;;;;;;0.40;0.40;;;19.10;64.20;;;;;;5037495;28;20260;-66
2022/12/31 11:12:32;;;;;;;0.40;0.40;;;19.10;64.30;;;;;;5043532;28;20195;-65
2022/12/31 11:15:16;;;;;;;0.85;0.50;;;19.00;64.10;;;;;;5034223;28;20197;-65
2022/12/31 11:18:00;;;;;;;0.40;0.40;;;19.00;64.10;;;;;;5052239;28;20323;-66
2022/12/31 11:21:14;;;;;;;2.13;0.60;;;19.00;64.10;;;;;;5034215;28;20225;-65
2022/12/31 11:24:01;;;;;;;1.65;0.50;;;19.10;64.30;;;;;;5034714;28;20206;-66
2022/12/31 11:27:16;;;;;;;0.73;0.50;;;19.00;64.10;;;;;;5039008;28;20239;-65
2022/12/31 11:30:20;;;;;;;0.50;0.35;;;19.00;64.20;;;;;;5041413;28;20757;-65
2022/12/31 11:33:28;;;;;;;0.65;0.60;;;19.10;64.30;;;;;;5034552;28;20726;-66
2022/12/31 11:36:20;;;;;;;1.35;0.60;;;19.00;64.20;;;;;;5033731;28;20196;-65
2022/12/31 11:39:31;;;;;;;1.35;0.50;;;19.00;64.20;;;;;;5049070;28;20208;-66
2022/12/31 11:42:03;;;;;;;0.50;0.50;;;19.00;64.20;;;;;;5025781;28;20197;-66
2022/12/31 11:44:50;;;;;;;1.00;0.50;;;19.00;64.20;;;;;;5025892;28;20271;-67
2022/12/31 11:47:57;;;;;;;0.40;0.40;;;19.10;64.30;;;;;;5017769;28;20225;-66
2022/12/31 11:50:58;;;;;;;0.43;0.43;;;19.10;64.30;;;;;;5053833;28;20233;-68
2022/12/31 11:54:16;;;;;;;0.43;0.43;;;19.10;64.40;;;;;;5037367;28;20242;-66
2022/12/31 11:57:12;;;;;;;2.67;0.55;;;19.00;64.20;;;;;;5031582;28;20198;-66
2022/12/31 11:59:38;;;;;;;0.35;0.35;;;19.10;64.40;;;;;;5060130;28;20210;-66
2022/12/31 12:02:35;;;;;;;0.57;0.57;;;19.00;64.20;;;;;;5040353;28;20276;-65
2022/12/31 12:05:04;;;;;;;0.50;0.50;;;19.00;64.30;;;;;;5053819;28;20190;-64
2022/12/31 12:07:31;;;;;;;0.40;0.40;;;19.00;64.30;;;;;;5034452;28;20190;-66
2022/12/31 12:10:29;;;;;;;0.45;0.40;;;19.10;64.40;;;;;;5050050;28;20606;-66
2022/12/31 12:12:57;;;;;;;1.13;0.68;;;19.10;64.40;;;;;;5033914;28;20628;-66
2022/12/31 12:15:28;;;;;;;0.52;0.40;;;19.10;64.40;;;;;;5034429;28;20222;-66
2022/12/31 12:18:06;;;;;;;0.40;0.40;;;19.10;64.40;;;;;;5034350;28;20698;-66
2022/12/31 12:20:42;;;;;;;0.60;0.50;;;19.10;64.50;;;;;;5051679;28;20711;-66
2022/12/31 12:23:24;;;;;;;0.73;0.50;;;19.10;64.40;;;;;;5051994;28;20206;-67
2022/12/31 12:25:50;;;;;;;0.45;0.45;;;19.10;64.50;;;;;;5057256;28;20189;-66
2022/12/31 12:28:19;;;;;;;0.50;0.50;;;19.10;64.50;;;;;;5038564;28;20210;-67
2022/12/31 12:30:54;;;;;;;0.50;0.50;;;19.10;64.50;;;;;;5054018;28;20182;-66
2022/12/31 12:33:20;;;;;;;0.40;0.40;;;19.10;64.50;;;;;;5051346;28;20189;-66
2022/12/31 12:35:46;;;;;;;0.95;0.40;;;19.10;64.50;;;;;;5066005;28;20185;-66
2022/12/31 12:38:20;;;;;;;1.00;0.50;;;19.10;64.90;;;;;;5035655;28;20178;-66
2022/12/31 12:40:58;;;;;;;0.85;0.50;;;19.10;64.80;;;;;;5036079;28;20187;-66
2022/12/31 12:43:32;;;;;;;0.70;0.50;;;19.10;64.90;;;;;;5065833;28;20692;-66
2022/12/31 12:46:30;;;;;;;0.40;0.40;;;19.10;64.80;;;;;;5048562;28;20187;-66
2022/12/31 12:48:57;;;;;;;0.73;0.50;;;19.10;64.80;;;;;;5040974;28;20262;-68
2022/12/31 12:51:40;;;;;;;0.60;0.55;;;19.10;64.80;;;;;;5057151;28;20196;-66
2022/12/31 12:55:12;;;;;;;0.65;0.50;;;19.10;64.90;;;;;;5073695;28;20189;-66
2022/12/31 12:58:02;;;;;;;0.40;0.40;;;19.10;64.80;;;;;;5074007;28;20185;-66
2022/12/31 13:00:35;;;;;;;1.52;0.47;;;19.10;64.80;;;;;;5074806;28;20213;-64
2022/12/31 13:03:38;;;;;;;0.47;0.40;;;19.10;64.80;;;;;;5058690;28;20217;-67
2022/12/31 13:06:44;;;;;;;0.50;0.40;;;19.10;64.80;;;;;;5048897;28;20190;-66
2022/12/31 13:09:53;;;;;;;0.80;0.50;;;19.10;64.80;;;;;;5020266;28;20268;-67
2022/12/31 13:13:17;;;;;;;0.40;0.40;;;19.10;64.80;;;;;;5054857;28;20186;-66
2022/12/31 13:16:03;;;;;;;1.65;0.63;;;19.10;64.80;;;;;;5014948;28;20198;-66
2022/12/31 13:18:38;;;;;;;0.68;0.50;;;19.10;64.80;;;;;;5036785;28;20187;-66
2022/12/31 13:21:35;;;;;;;1.13;0.50;;;19.10;64.80;;;;;;5020368;28;20281;-66
2022/12/31 13:24:28;;;;;;;2.45;0.60;;;19.10;64.80;;;;;;5054739;28;20198;-66
2022/12/31 13:27:22;;;;;;;0.90;0.60;;;19.10;64.90;;;;;;5037150;28;20190;-66
2022/12/31 13:29:50;;;;;;;0.40;0.40;;;19.10;64.80;;;;;;5042685;28;20210;-66
2022/12/31 13:32:28;;;;;;;1.38;0.60;;;19.10;64.90;;;;;;5038900;28;20190;-65
2022/12/31 13:35:01;;;;;;;0.95;0.52;;;19.10;64.90;;;;;;5045081;28;20201;-67
2022/12/31 13:37:36;;;;;;;0.60;0.50;;;19.10;65.00;;;;;;5031653;28;20186;-67
2022/12/31 13:40:18;;;;;;;1.48;0.63;;;19.10;64.90;;;;;;5069528;28;20209;-65
2022/12/31 13:43:04;;;;;;;1.50;0.73;;;19.10;65.10;;;;;;5059401;28;20205;-66
2022/12/31 13:45:39;;;;;;;0.90;0.65;;;19.10;65.10;;;;;;5069569;28;20613;-66
2022/12/31 13:48:23;;;;;;;1.45;0.70;;;19.10;65.00;;;;;;5062557;28;20204;-67
2022/12/31 13:51:10;;;;;;;0.60;0.60;;;19.10;65.00;;;;;;5070816;28;20689;-66
2022/12/31 13:54:06;;;;;;;0.60;0.60;;;19.10;65.00;;;;;;5044081;28;20183;-65
2022/12/31 13:56:37;;;;;;;0.50;0.50;;;19.10;65.00;;;;;;5016032;28;20199;-66
2022/12/31 13:59:09;;;;;;;0.55;0.50;;;19.10;65.00;;;;;;5049040;28;20210;-66